Etusivu
METAR-TAF:

METAR-TAF

Lentoasemat :

La Chaux-de-Fonds, Sveitsi

Leveyspiiri: 47-05-03N, Pituuspiiri: 006-47-37E, korkeus merenpinnasta: 1027 m

Tämänhetkinen sää

Tämä raportti tehtiin 17 minuuttia sitten, kello 09.50 UTC
Tuuli 4 kn eri suunnista
Lämpötila 18°C
Kosteus 45%
Ilmanpaine 1021 hPa
Näkyvyys 10 km tai enemmän
ei pilviä alle 1500 m:ssä eikä cumulonimbus-pilviä

METAR: LSGC 080950Z VRB04KT CAVOK 18/06 Q1021

Aika: 12:07 (10:07 UTC)

Sääennuste

Tämä raportti tehtiin 1 tunti ja 42 minuuttia sitten, kello 08.25 UTC
Ennuste voimassa 08. päivästä klo 09 UTC - 08. päivään klo 18 UTC
Tuuli 5 kn lounaasta
Näkyvyys 10 km tai enemmän
ei pilviä alle 1500 m:ssä eikä cumulonimbus-pilviä

TAF: LSGC 080825Z 0809/0818 23005KT CAVOK

Säähavainnot ja -ennusteet yli 4000 lentoasemalta (METAR- ja TAF-raportit).

Käytössä olevat sääasemat on merkitty karttaan keltaisilla ja punaisilla pisteillä.

Aseta hiiri pisteen päälle nähdäksesi sääaseman nimen.

Klikkaa sitten nähdäksesi säähavainnot ja -ennusteet.

Kartan vaihtaminen: klikkaa mustalla rastilla varustettuja vihreitä pisteitä, niin voit zoomata sisään; viivalla varustettua vihreää pistettä, niin voit zoomata ulos tai vihreitä nuolia, niin pääset viereisille kartoille.


METAR-TAF: